Washington, DC (20521)

11:18 PM EDT on May 05, 2015 (GMT -0400)
highgate-roslyn | | Change Station
CLOSE
Current Station
Personal Weather Station
Location: Arlington, VA
Elevation: 180 ft
Nearby Weather Stations

Elev 180 ft 38.90 °N, 77.07 °W | Updated 8 seconds ago

Partly Cloudy
Partly Cloudy
68.5 °F
Feels Like 68.5 °F
N
0.0
Wind Variable Wind from SW
Gusts 0.0 mph

Today
High -- | Low -- °F
--% Chance of Precip.
Yesterday
High -- | Low -- °F
Precip. -- in
6:06 AM 8:04 PM
Waning Gibbous, 96% visible
Pressure 30.25 in
Visibility 10.0 miles
Clouds Few 16000 ft
Mostly Cloudy 25000 ft
Dew Point 63 °F
Humidity 82%
Rainfall 0.00 in
Snow Depth Not available.
UV 0.0 out of 12
Pollen 9.20 out of 12
Air Quality Not available.
Flu Activity Sporadic
METAR KDCA 060252Z 22006KT 10SM FEW160 BKN250 20/17 A3025 RMK AO2 SLP242 60000 T02000167 50014

More Conditions Fewer Conditions

Pressure 30.25 in
Visibility 10.0 miles
Clouds Few 16000 ft
Mostly Cloudy 25000 ft
Dew Point 63 °F
Humidity 82%
Rainfall 0.00 in
Snow Depth Not available.
UV 0.0 out of 12
Pollen 9.20 out of 12
Air Quality Not available.
Flu Activity Sporadic
METAR KDCA 060252Z 22006KT 10SM FEW160 BKN250 20/17 A3025 RMK AO2 SLP242 60000 T02000167 50014

More Conditions Fewer Conditions

10-Day Weather Forecast

Almanac

Astronomy

May. 05, 2015 Rise Set
Actual Time
Civil Twilight
Nautical Twilight
Astronomical Twilight
Moon
Length of Visible Light
Length of Day
Tomorrow will be .
, % of the Moon is Illuminated

Today's Extremes

State Highs State Lows

Community

WunderPhotos

Upload Photos

1,819,062 photos uploaded!

WunderBlogs® & News

Nearby

Air Quality

  Air Quality AQ Index Pollutant
Not available.

Snow Depth

Station Depth Elevation

Earthquake Activity

City Distance Mag. Time & Date
Minimum magnitude displayed is 2.5.

Coastal Water Temperatures

Place Temperature

Stations

Nearby Weather Stations

Station Location Temp. Windchill Dew Point Humidity Wind Precip. Elev Updated Type